sensor_id;sensor_type;location;lat;lon;timestamp;P1;durP1;ratioP1;P2;durP2;ratioP2
26098;SDS011;13860;52.370;6.764;2022-08-21T00:01:33;10.98;;;4.20;;
26098;SDS011;13860;52.370;6.764;2022-08-21T00:04:38;11.10;;;3.80;;
26098;SDS011;13860;52.370;6.764;2022-08-21T00:07:57;10.63;;;4.15;;
26098;SDS011;13860;52.370;6.764;2022-08-21T00:11:03;14.95;;;4.18;;
26098;SDS011;13860;52.370;6.764;2022-08-21T00:14:12;15.40;;;3.30;;
26098;SDS011;13860;52.370;6.764;2022-08-21T00:17:17;8.98;;;4.03;;
26098;SDS011;13860;52.370;6.764;2022-08-21T00:20:23;9.60;;;4.20;;
26098;SDS011;13860;52.370;6.764;2022-08-21T00:23:29;9.35;;;3.55;;
26098;SDS011;13860;52.370;6.764;2022-08-21T00:26:35;9.40;;;3.88;;
26098;SDS011;13860;52.370;6.764;2022-08-21T00:29:43;9.38;;;3.90;;
26098;SDS011;13860;52.370;6.764;2022-08-21T00:32:48;17.05;;;5.57;;
26098;SDS011;13860;52.370;6.764;2022-08-21T00:35:53;15.25;;;4.40;;
26098;SDS011;13860;52.370;6.764;2022-08-21T00:38:58;11.10;;;3.97;;
26098;SDS011;13860;52.370;6.764;2022-08-21T00:42:04;11.82;;;3.85;;
26098;SDS011;13860;52.370;6.764;2022-08-21T00:45:12;10.55;;;4.38;;
26098;SDS011;13860;52.370;6.764;2022-08-21T00:48:17;9.57;;;4.95;;
26098;SDS011;13860;52.370;6.764;2022-08-21T00:51:23;14.18;;;4.57;;
26098;SDS011;13860;52.370;6.764;2022-08-21T00:54:38;8.65;;;4.30;;
26098;SDS011;13860;52.370;6.764;2022-08-21T00:57:47;13.50;;;4.88;;
26098;SDS011;13860;52.370;6.764;2022-08-21T01:00:59;16.15;;;5.47;;
26098;SDS011;13860;52.370;6.764;2022-08-21T01:04:09;10.60;;;4.15;;
26098;SDS011;13860;52.370;6.764;2022-08-21T01:07:15;13.50;;;4.82;;
26098;SDS011;13860;52.370;6.764;2022-08-21T01:10:23;10.85;;;3.90;;
26098;SDS011;13860;52.370;6.764;2022-08-21T01:13:31;8.20;;;4.15;;
26098;SDS011;13860;52.370;6.764;2022-08-21T01:16:42;11.90;;;4.40;;
26098;SDS011;13860;52.370;6.764;2022-08-21T01:19:49;8.93;;;4.15;;
26098;SDS011;13860;52.370;6.764;2022-08-21T01:22:57;9.63;;;3.85;;
26098;SDS011;13860;52.370;6.764;2022-08-21T01:26:02;9.85;;;4.70;;
26098;SDS011;13860;52.370;6.764;2022-08-21T01:29:10;13.05;;;4.18;;
26098;SDS011;13860;52.370;6.764;2022-08-21T01:32:19;13.05;;;4.75;;
26098;SDS011;13860;52.370;6.764;2022-08-21T01:35:24;12.38;;;4.45;;
26098;SDS011;13860;52.370;6.764;2022-08-21T01:38:32;9.80;;;4.15;;
26098;SDS011;13860;52.370;6.764;2022-08-21T01:41:37;9.52;;;4.35;;
26098;SDS011;13860;52.370;6.764;2022-08-21T01:44:43;9.30;;;4.63;;
26098;SDS011;13860;52.370;6.764;2022-08-21T01:47:49;8.70;;;4.18;;
26098;SDS011;13860;52.370;6.764;2022-08-21T01:50:54;12.05;;;4.40;;
26098;SDS011;13860;52.370;6.764;2022-08-21T01:54:03;17.17;;;4.70;;
26098;SDS011;13860;52.370;6.764;2022-08-21T01:57:08;8.75;;;4.95;;
26098;SDS011;13860;52.370;6.764;2022-08-21T02:00:14;11.35;;;5.00;;
26098;SDS011;13860;52.370;6.764;2022-08-21T02:03:21;9.18;;;5.00;;
26098;SDS011;13860;52.370;6.764;2022-08-21T02:06:36;10.40;;;4.85;;
26098;SDS011;13860;52.370;6.764;2022-08-21T02:09:44;7.80;;;4.10;;
26098;SDS011;13860;52.370;6.764;2022-08-21T02:12:50;18.67;;;6.32;;
26098;SDS011;13860;52.370;6.764;2022-08-21T02:15:55;10.02;;;4.75;;
26098;SDS011;13860;52.370;6.764;2022-08-21T02:19:00;10.05;;;4.30;;
26098;SDS011;13860;52.370;6.764;2022-08-21T02:22:05;13.90;;;4.85;;
26098;SDS011;13860;52.370;6.764;2022-08-21T02:25:13;12.57;;;4.72;;
26098;SDS011;13860;52.370;6.764;2022-08-21T02:28:18;13.23;;;4.15;;
26098;SDS011;13860;52.370;6.764;2022-08-21T02:31:23;9.43;;;4.78;;
26098;SDS011;13860;52.370;6.764;2022-08-21T02:34:28;11.65;;;4.68;;
26098;SDS011;13860;52.370;6.764;2022-08-21T02:37:33;14.65;;;5.50;;
26098;SDS011;13860;52.370;6.764;2022-08-21T02:40:42;15.15;;;5.28;;
26098;SDS011;13860;52.370;6.764;2022-08-21T02:43:51;9.15;;;4.82;;
26098;SDS011;13860;52.370;6.764;2022-08-21T02:46:56;11.90;;;5.38;;
26098;SDS011;13860;52.370;6.764;2022-08-21T02:50:02;12.52;;;5.05;;
26098;SDS011;13860;52.370;6.764;2022-08-21T02:53:09;17.38;;;5.70;;
26098;SDS011;13860;52.370;6.764;2022-08-21T02:56:20;8.38;;;5.00;;
26098;SDS011;13860;52.370;6.764;2022-08-21T02:59:31;14.68;;;5.25;;
26098;SDS011;13860;52.370;6.764;2022-08-21T03:02:36;13.30;;;4.80;;
26098;SDS011;13860;52.370;6.764;2022-08-21T03:05:42;9.23;;;5.00;;
26098;SDS011;13860;52.370;6.764;2022-08-21T03:08:48;10.75;;;5.07;;
26098;SDS011;13860;52.370;6.764;2022-08-21T03:11:55;14.88;;;4.80;;
26098;SDS011;13860;52.370;6.764;2022-08-21T03:15:01;8.93;;;4.18;;
26098;SDS011;13860;52.370;6.764;2022-08-21T03:18:07;13.85;;;5.20;;
26098;SDS011;13860;52.370;6.764;2022-08-21T03:21:13;14.77;;;5.15;;
26098;SDS011;13860;52.370;6.764;2022-08-21T03:24:20;11.80;;;5.30;;
26098;SDS011;13860;52.370;6.764;2022-08-21T03:27:28;11.98;;;4.93;;
26098;SDS011;13860;52.370;6.764;2022-08-21T03:30:35;8.23;;;4.70;;
26098;SDS011;13860;52.370;6.764;2022-08-21T03:33:40;8.10;;;4.22;;
26098;SDS011;13860;52.370;6.764;2022-08-21T03:36:45;8.35;;;4.40;;
26098;SDS011;13860;52.370;6.764;2022-08-21T03:39:51;8.75;;;4.05;;
26098;SDS011;13860;52.370;6.764;2022-08-21T03:42:58;7.40;;;4.25;;
26098;SDS011;13860;52.370;6.764;2022-08-21T03:46:04;8.73;;;4.22;;
26098;SDS011;13860;52.370;6.764;2022-08-21T03:49:09;6.97;;;4.07;;
26098;SDS011;13860;52.370;6.764;2022-08-21T03:52:14;10.13;;;4.70;;
26098;SDS011;13860;52.370;6.764;2022-08-21T03:55:20;8.38;;;4.40;;
26098;SDS011;13860;52.370;6.764;2022-08-21T03:58:28;8.15;;;4.15;;
26098;SDS011;13860;52.370;6.764;2022-08-21T04:01:33;10.38;;;4.90;;
26098;SDS011;13860;52.370;6.764;2022-08-21T04:04:38;8.35;;;4.47;;
26098;SDS011;13860;52.370;6.764;2022-08-21T04:07:43;7.57;;;4.57;;
26098;SDS011;13860;52.370;6.764;2022-08-21T04:10:49;10.32;;;4.60;;
26098;SDS011;13860;52.370;6.764;2022-08-21T04:13:59;7.15;;;4.38;;
26098;SDS011;13860;52.370;6.764;2022-08-21T04:17:04;6.53;;;4.25;;
26098;SDS011;13860;52.370;6.764;2022-08-21T04:20:09;9.05;;;4.85;;
26098;SDS011;13860;52.370;6.764;2022-08-21T04:23:17;11.68;;;5.45;;
26098;SDS011;13860;52.370;6.764;2022-08-21T04:26:25;9.35;;;5.00;;
26098;SDS011;13860;52.370;6.764;2022-08-21T04:29:32;9.75;;;4.93;;
26098;SDS011;13860;52.370;6.764;2022-08-21T04:32:41;10.98;;;5.13;;
26098;SDS011;13860;52.370;6.764;2022-08-21T04:35:47;10.07;;;5.25;;
26098;SDS011;13860;52.370;6.764;2022-08-21T04:38:52;8.77;;;4.95;;
26098;SDS011;13860;52.370;6.764;2022-08-21T04:41:57;13.05;;;5.28;;
26098;SDS011;13860;52.370;6.764;2022-08-21T04:45:05;10.52;;;5.50;;
26098;SDS011;13860;52.370;6.764;2022-08-21T04:48:11;9.98;;;5.60;;
26098;SDS011;13860;52.370;6.764;2022-08-21T04:51:18;9.30;;;5.15;;
26098;SDS011;13860;52.370;6.764;2022-08-21T04:54:27;8.60;;;4.80;;
26098;SDS011;13860;52.370;6.764;2022-08-21T04:57:32;12.13;;;5.30;;
26098;SDS011;13860;52.370;6.764;2022-08-21T05:00:52;12.80;;;5.03;;
26098;SDS011;13860;52.370;6.764;2022-08-21T05:04:00;13.45;;;4.93;;
26098;SDS011;13860;52.370;6.764;2022-08-21T05:07:10;19.95;;;6.53;;
26098;SDS011;13860;52.370;6.764;2022-08-21T05:10:39;12.68;;;5.43;;
26098;SDS011;13860;52.370;6.764;2022-08-21T05:13:44;14.15;;;5.53;;
26098;SDS011;13860;52.370;6.764;2022-08-21T05:16:59;11.45;;;5.75;;
26098;SDS011;13860;52.370;6.764;2022-08-21T05:20:04;11.02;;;5.55;;
26098;SDS011;13860;52.370;6.764;2022-08-21T05:23:11;13.15;;;5.18;;
26098;SDS011;13860;52.370;6.764;2022-08-21T05:26:17;11.98;;;6.47;;
26098;SDS011;13860;52.370;6.764;2022-08-21T05:29:22;12.70;;;6.78;;
26098;SDS011;13860;52.370;6.764;2022-08-21T05:32:30;15.02;;;6.72;;
26098;SDS011;13860;52.370;6.764;2022-08-21T05:35:35;11.48;;;7.07;;
26098;SDS011;13860;52.370;6.764;2022-08-21T05:38:42;11.48;;;7.07;;
26098;SDS011;13860;52.370;6.764;2022-08-21T05:41:47;21.85;;;7.85;;
26098;SDS011;13860;52.370;6.764;2022-08-21T05:44:52;12.23;;;6.93;;
26098;SDS011;13860;52.370;6.764;2022-08-21T05:48:04;18.75;;;7.20;;
26098;SDS011;13860;52.370;6.764;2022-08-21T05:51:11;15.50;;;7.60;;
26098;SDS011;13860;52.370;6.764;2022-08-21T05:54:17;17.13;;;7.82;;
26098;SDS011;13860;52.370;6.764;2022-08-21T05:57:22;14.13;;;7.60;;
26098;SDS011;13860;52.370;6.764;2022-08-21T06:00:27;16.33;;;7.00;;
26098;SDS011;13860;52.370;6.764;2022-08-21T06:03:37;14.32;;;7.22;;
26098;SDS011;13860;52.370;6.764;2022-08-21T06:06:44;18.42;;;7.72;;
26098;SDS011;13860;52.370;6.764;2022-08-21T06:09:49;12.48;;;7.13;;
26098;SDS011;13860;52.370;6.764;2022-08-21T06:12:54;16.38;;;6.78;;
26098;SDS011;13860;52.370;6.764;2022-08-21T06:16:03;14.13;;;7.43;;
26098;SDS011;13860;52.370;6.764;2022-08-21T06:19:13;12.52;;;7.43;;
26098;SDS011;13860;52.370;6.764;2022-08-21T06:22:18;14.50;;;8.10;;
26098;SDS011;13860;52.370;6.764;2022-08-21T06:25:23;15.30;;;6.55;;
26098;SDS011;13860;52.370;6.764;2022-08-21T06:28:28;15.10;;;7.07;;
26098;SDS011;13860;52.370;6.764;2022-08-21T06:31:33;13.27;;;6.88;;
26098;SDS011;13860;52.370;6.764;2022-08-21T06:34:41;12.15;;;6.90;;
26098;SDS011;13860;52.370;6.764;2022-08-21T06:37:46;9.48;;;5.57;;
26098;SDS011;13860;52.370;6.764;2022-08-21T06:40:51;9.32;;;5.88;;
26098;SDS011;13860;52.370;6.764;2022-08-21T06:43:58;12.80;;;5.97;;
26098;SDS011;13860;52.370;6.764;2022-08-21T06:47:03;14.55;;;6.25;;
26098;SDS011;13860;52.370;6.764;2022-08-21T06:50:11;9.90;;;5.18;;
26098;SDS011;13860;52.370;6.764;2022-08-21T06:53:17;15.23;;;5.53;;
26098;SDS011;13860;52.370;6.764;2022-08-21T06:56:23;11.60;;;5.13;;
26098;SDS011;13860;52.370;6.764;2022-08-21T06:59:28;11.13;;;4.78;;
26098;SDS011;13860;52.370;6.764;2022-08-21T07:02:33;11.50;;;4.93;;
26098;SDS011;13860;52.370;6.764;2022-08-21T07:05:44;12.52;;;4.57;;
26098;SDS011;13860;52.370;6.764;2022-08-21T07:08:49;9.80;;;4.53;;
26098;SDS011;13860;52.370;6.764;2022-08-21T07:11:59;10.05;;;4.72;;
26098;SDS011;13860;52.370;6.764;2022-08-21T07:15:05;12.57;;;5.10;;
26098;SDS011;13860;52.370;6.764;2022-08-21T07:18:10;12.60;;;4.45;;
26098;SDS011;13860;52.370;6.764;2022-08-21T07:21:18;9.70;;;3.90;;
26098;SDS011;13860;52.370;6.764;2022-08-21T07:24:26;8.35;;;4.38;;
26098;SDS011;13860;52.370;6.764;2022-08-21T07:27:32;8.13;;;4.28;;
26098;SDS011;13860;52.370;6.764;2022-08-21T07:30:37;10.20;;;4.35;;
26098;SDS011;13860;52.370;6.764;2022-08-21T07:33:42;9.45;;;4.45;;
26098;SDS011;13860;52.370;6.764;2022-08-21T07:36:50;10.70;;;4.47;;
26098;SDS011;13860;52.370;6.764;2022-08-21T07:39:55;8.25;;;4.05;;
26098;SDS011;13860;52.370;6.764;2022-08-21T07:43:00;10.18;;;4.05;;
26098;SDS011;13860;52.370;6.764;2022-08-21T07:46:05;8.35;;;4.22;;
26098;SDS011;13860;52.370;6.764;2022-08-21T07:49:10;10.52;;;3.58;;
26098;SDS011;13860;52.370;6.764;2022-08-21T07:52:18;11.90;;;3.75;;
26098;SDS011;13860;52.370;6.764;2022-08-21T07:55:23;9.85;;;3.60;;
26098;SDS011;13860;52.370;6.764;2022-08-21T07:58:28;11.20;;;4.28;;
26098;SDS011;13860;52.370;6.764;2022-08-21T08:01:34;8.48;;;3.78;;
26098;SDS011;13860;52.370;6.764;2022-08-21T08:04:39;16.75;;;3.53;;
26098;SDS011;13860;52.370;6.764;2022-08-21T08:07:54;10.98;;;3.53;;
26098;SDS011;13860;52.370;6.764;2022-08-21T08:11:00;11.40;;;3.72;;
26098;SDS011;13860;52.370;6.764;2022-08-21T08:14:05;12.25;;;3.60;;
26098;SDS011;13860;52.370;6.764;2022-08-21T08:17:10;11.13;;;3.17;;
26098;SDS011;13860;52.370;6.764;2022-08-21T08:20:16;8.70;;;2.88;;
26098;SDS011;13860;52.370;6.764;2022-08-21T08:23:25;9.82;;;2.70;;
26098;SDS011;13860;52.370;6.764;2022-08-21T08:26:32;12.68;;;3.63;;
26098;SDS011;13860;52.370;6.764;2022-08-21T08:29:37;7.50;;;3.33;;
26098;SDS011;13860;52.370;6.764;2022-08-21T08:32:42;14.75;;;3.67;;
26098;SDS011;13860;52.370;6.764;2022-08-21T08:35:48;14.60;;;3.47;;
26098;SDS011;13860;52.370;6.764;2022-08-21T08:38:56;9.80;;;3.25;;
26098;SDS011;13860;52.370;6.764;2022-08-21T08:42:05;10.63;;;2.92;;
26098;SDS011;13860;52.370;6.764;2022-08-21T08:45:34;6.18;;;3.05;;
26098;SDS011;13860;52.370;6.764;2022-08-21T08:48:46;11.50;;;3.33;;
26098;SDS011;13860;52.370;6.764;2022-08-21T08:51:56;12.52;;;3.85;;
26098;SDS011;13860;52.370;6.764;2022-08-21T08:55:09;10.75;;;3.63;;
26098;SDS011;13860;52.370;6.764;2022-08-21T08:58:19;9.82;;;3.65;;
26098;SDS011;13860;52.370;6.764;2022-08-21T09:01:27;8.13;;;3.50;;
26098;SDS011;13860;52.370;6.764;2022-08-21T09:04:39;9.45;;;3.00;;
26098;SDS011;13860;52.370;6.764;2022-08-21T09:07:47;7.50;;;2.85;;
26098;SDS011;13860;52.370;6.764;2022-08-21T09:11:07;8.70;;;3.58;;
26098;SDS011;13860;52.370;6.764;2022-08-21T09:14:22;8.15;;;2.60;;
26098;SDS011;13860;52.370;6.764;2022-08-21T09:17:38;10.30;;;2.95;;
26098;SDS011;13860;52.370;6.764;2022-08-21T09:20:56;10.93;;;3.33;;
26098;SDS011;13860;52.370;6.764;2022-08-21T09:24:18;6.80;;;2.75;;
26098;SDS011;13860;52.370;6.764;2022-08-21T09:27:33;13.02;;;2.80;;
26098;SDS011;13860;52.370;6.764;2022-08-21T09:30:39;9.82;;;2.42;;
26098;SDS011;13860;52.370;6.764;2022-08-21T09:33:45;9.02;;;2.63;;
26098;SDS011;13860;52.370;6.764;2022-08-21T09:36:50;10.63;;;2.72;;
26098;SDS011;13860;52.370;6.764;2022-08-21T09:39:55;13.90;;;3.75;;
26098;SDS011;13860;52.370;6.764;2022-08-21T09:43:05;10.80;;;3.22;;
26098;SDS011;13860;52.370;6.764;2022-08-21T09:46:20;8.93;;;2.92;;
26098;SDS011;13860;52.370;6.764;2022-08-21T09:49:27;11.05;;;2.85;;
26098;SDS011;13860;52.370;6.764;2022-08-21T09:52:33;10.40;;;2.33;;
26098;SDS011;13860;52.370;6.764;2022-08-21T09:55:46;9.38;;;2.88;;
26098;SDS011;13860;52.370;6.764;2022-08-21T09:59:16;7.20;;;2.28;;
26098;SDS011;13860;52.370;6.764;2022-08-21T10:02:26;11.07;;;2.58;;
26098;SDS011;13860;52.370;6.764;2022-08-21T10:05:33;4.72;;;2.35;;
26098;SDS011;13860;52.370;6.764;2022-08-21T10:08:39;7.93;;;3.03;;
26098;SDS011;13860;52.370;6.764;2022-08-21T10:11:47;11.05;;;2.90;;
26098;SDS011;13860;52.370;6.764;2022-08-21T10:15:02;11.00;;;4.07;;
26098;SDS011;13860;52.370;6.764;2022-08-21T10:18:17;11.95;;;2.70;;
26098;SDS011;13860;52.370;6.764;2022-08-21T10:24:38;10.13;;;3.30;;
26098;SDS011;13860;52.370;6.764;2022-08-21T10:27:58;10.25;;;2.80;;
26098;SDS011;13860;52.370;6.764;2022-08-21T10:31:18;8.05;;;2.45;;
26098;SDS011;13860;52.370;6.764;2022-08-21T10:34:35;11.88;;;2.88;;
26098;SDS011;13860;52.370;6.764;2022-08-21T10:41:05;6.43;;;2.38;;
26098;SDS011;13860;52.370;6.764;2022-08-21T10:44:22;7.68;;;2.20;;
26098;SDS011;13860;52.370;6.764;2022-08-21T10:47:37;6.75;;;2.17;;
26098;SDS011;13860;52.370;6.764;2022-08-21T10:50:48;13.53;;;2.80;;
26098;SDS011;13860;52.370;6.764;2022-08-21T10:53:58;10.85;;;2.20;;
26098;SDS011;13860;52.370;6.764;2022-08-21T10:57:11;6.15;;;1.75;;
26098;SDS011;13860;52.370;6.764;2022-08-21T11:00:33;5.18;;;1.80;;
26098;SDS011;13860;52.370;6.764;2022-08-21T11:03:48;5.13;;;1.70;;
26098;SDS011;13860;52.370;6.764;2022-08-21T11:07:02;11.88;;;1.85;;
26098;SDS011;13860;52.370;6.764;2022-08-21T11:10:19;9.98;;;2.15;;
26098;SDS011;13860;52.370;6.764;2022-08-21T11:13:30;10.52;;;2.10;;
26098;SDS011;13860;52.370;6.764;2022-08-21T11:16:42;8.30;;;2.20;;
26098;SDS011;13860;52.370;6.764;2022-08-21T11:19:57;9.40;;;1.73;;
26098;SDS011;13860;52.370;6.764;2022-08-21T11:23:11;4.72;;;1.40;;
26098;SDS011;13860;52.370;6.764;2022-08-21T11:26:23;7.63;;;1.85;;
26098;SDS011;13860;52.370;6.764;2022-08-21T11:29:36;5.07;;;1.50;;
26098;SDS011;13860;52.370;6.764;2022-08-21T11:32:51;5.47;;;1.48;;
26098;SDS011;13860;52.370;6.764;2022-08-21T11:36:08;6.07;;;1.75;;
26098;SDS011;13860;52.370;6.764;2022-08-21T11:39:21;12.55;;;2.28;;
26098;SDS011;13860;52.370;6.764;2022-08-21T11:42:32;6.47;;;1.70;;
26098;SDS011;13860;52.370;6.764;2022-08-21T11:45:43;3.60;;;1.10;;
26098;SDS011;13860;52.370;6.764;2022-08-21T11:52:20;6.20;;;1.70;;
26098;SDS011;13860;52.370;6.764;2022-08-21T11:55:29;4.38;;;1.73;;
26098;SDS011;13860;52.370;6.764;2022-08-21T11:58:37;7.20;;;1.65;;
26098;SDS011;13860;52.370;6.764;2022-08-21T12:01:46;8.27;;;1.70;;
26098;SDS011;13860;52.370;6.764;2022-08-21T12:04:56;4.45;;;1.17;;
26098;SDS011;13860;52.370;6.764;2022-08-21T12:08:14;6.22;;;1.30;;
26098;SDS011;13860;52.370;6.764;2022-08-21T12:11:31;6.10;;;1.60;;
26098;SDS011;13860;52.370;6.764;2022-08-21T12:14:39;5.70;;;1.50;;
26098;SDS011;13860;52.370;6.764;2022-08-21T12:17:53;4.90;;;1.25;;
26098;SDS011;13860;52.370;6.764;2022-08-21T12:21:03;7.28;;;1.40;;
26098;SDS011;13860;52.370;6.764;2022-08-21T12:24:32;7.97;;;1.38;;
26098;SDS011;13860;52.370;6.764;2022-08-21T12:27:45;6.28;;;1.20;;
26098;SDS011;13860;52.370;6.764;2022-08-21T12:30:51;5.07;;;1.90;;
26098;SDS011;13860;52.370;6.764;2022-08-21T12:33:59;9.75;;;1.60;;
26098;SDS011;13860;52.370;6.764;2022-08-21T12:37:16;7.72;;;1.77;;
26098;SDS011;13860;52.370;6.764;2022-08-21T12:40:30;8.98;;;1.48;;
26098;SDS011;13860;52.370;6.764;2022-08-21T12:43:41;9.07;;;1.70;;
26098;SDS011;13860;52.370;6.764;2022-08-21T12:46:48;6.72;;;1.70;;
26098;SDS011;13860;52.370;6.764;2022-08-21T12:49:59;7.25;;;1.55;;
26098;SDS011;13860;52.370;6.764;2022-08-21T12:53:07;8.05;;;1.65;;
26098;SDS011;13860;52.370;6.764;2022-08-21T12:59:31;6.85;;;1.77;;
26098;SDS011;13860;52.370;6.764;2022-08-21T13:02:37;4.53;;;1.55;;
26098;SDS011;13860;52.370;6.764;2022-08-21T13:05:46;6.15;;;1.65;;
26098;SDS011;13860;52.370;6.764;2022-08-21T13:08:55;7.13;;;1.50;;
26098;SDS011;13860;52.370;6.764;2022-08-21T13:12:06;5.88;;;1.50;;
26098;SDS011;13860;52.370;6.764;2022-08-21T13:15:12;7.68;;;2.13;;
26098;SDS011;13860;52.370;6.764;2022-08-21T13:18:24;11.10;;;1.77;;
26098;SDS011;13860;52.370;6.764;2022-08-21T13:21:34;6.53;;;1.60;;
26098;SDS011;13860;52.370;6.764;2022-08-21T13:24:46;7.57;;;1.75;;
26098;SDS011;13860;52.370;6.764;2022-08-21T13:28:04;8.23;;;1.42;;
26098;SDS011;13860;52.370;6.764;2022-08-21T13:31:10;5.28;;;1.23;;
26098;SDS011;13860;52.370;6.764;2022-08-21T13:34:15;6.40;;;1.42;;
26098;SDS011;13860;52.370;6.764;2022-08-21T13:37:22;9.52;;;1.40;;
26098;SDS011;13860;52.370;6.764;2022-08-21T13:40:31;8.20;;;1.65;;
26098;SDS011;13860;52.370;6.764;2022-08-21T13:43:47;5.38;;;1.80;;
26098;SDS011;13860;52.370;6.764;2022-08-21T13:46:53;6.72;;;1.60;;
26098;SDS011;13860;52.370;6.764;2022-08-21T13:49:59;7.60;;;1.58;;
26098;SDS011;13860;52.370;6.764;2022-08-21T13:53:05;9.13;;;2.38;;
26098;SDS011;13860;52.370;6.764;2022-08-21T13:56:24;7.40;;;1.30;;
26098;SDS011;13860;52.370;6.764;2022-08-21T13:59:34;9.05;;;1.40;;
26098;SDS011;13860;52.370;6.764;2022-08-21T14:02:40;4.68;;;1.55;;
26098;SDS011;13860;52.370;6.764;2022-08-21T14:05:48;7.18;;;1.40;;
26098;SDS011;13860;52.370;6.764;2022-08-21T14:08:55;3.92;;;1.40;;
26098;SDS011;13860;52.370;6.764;2022-08-21T14:12:15;5.53;;;1.27;;
26098;SDS011;13860;52.370;6.764;2022-08-21T14:15:27;6.75;;;1.80;;
26098;SDS011;13860;52.370;6.764;2022-08-21T14:18:34;3.97;;;1.20;;
26098;SDS011;13860;52.370;6.764;2022-08-21T14:21:48;6.90;;;1.58;;
26098;SDS011;13860;52.370;6.764;2022-08-21T14:24:58;4.88;;;1.30;;
26098;SDS011;13860;52.370;6.764;2022-08-21T14:28:07;7.53;;;1.50;;
26098;SDS011;13860;52.370;6.764;2022-08-21T14:34:43;3.50;;;1.20;;
26098;SDS011;13860;52.370;6.764;2022-08-21T14:37:49;5.00;;;1.52;;
26098;SDS011;13860;52.370;6.764;2022-08-21T14:40:56;5.75;;;1.58;;
26098;SDS011;13860;52.370;6.764;2022-08-21T14:44:04;6.45;;;1.73;;
26098;SDS011;13860;52.370;6.764;2022-08-21T14:47:14;7.85;;;2.05;;
26098;SDS011;13860;52.370;6.764;2022-08-21T14:50:19;4.30;;;1.67;;
26098;SDS011;13860;52.370;6.764;2022-08-21T14:53:28;5.00;;;1.30;;
26098;SDS011;13860;52.370;6.764;2022-08-21T14:56:34;6.63;;;1.60;;
26098;SDS011;13860;52.370;6.764;2022-08-21T14:59:40;11.23;;;1.80;;
26098;SDS011;13860;52.370;6.764;2022-08-21T15:02:47;7.10;;;1.70;;
26098;SDS011;13860;52.370;6.764;2022-08-21T15:05:52;2.22;;;1.10;;
26098;SDS011;13860;52.370;6.764;2022-08-21T15:08:57;7.45;;;1.70;;
26098;SDS011;13860;52.370;6.764;2022-08-21T15:12:05;7.22;;;1.35;;
26098;SDS011;13860;52.370;6.764;2022-08-21T15:15:11;7.45;;;1.40;;
26098;SDS011;13860;52.370;6.764;2022-08-21T15:18:21;7.80;;;1.85;;
26098;SDS011;13860;52.370;6.764;2022-08-21T15:21:27;8.20;;;1.42;;
26098;SDS011;13860;52.370;6.764;2022-08-21T15:24:32;6.78;;;1.73;;
26098;SDS011;13860;52.370;6.764;2022-08-21T15:27:38;3.22;;;1.55;;
26098;SDS011;13860;52.370;6.764;2022-08-21T15:30:43;5.68;;;1.60;;
26098;SDS011;13860;52.370;6.764;2022-08-21T15:33:51;4.85;;;1.80;;
26098;SDS011;13860;52.370;6.764;2022-08-21T15:36:57;9.45;;;1.98;;
26098;SDS011;13860;52.370;6.764;2022-08-21T15:40:03;11.80;;;2.00;;
26098;SDS011;13860;52.370;6.764;2022-08-21T15:43:21;6.13;;;2.00;;
26098;SDS011;13860;52.370;6.764;2022-08-21T15:46:31;4.72;;;1.65;;
26098;SDS011;13860;52.370;6.764;2022-08-21T15:49:39;8.25;;;2.10;;
26098;SDS011;13860;52.370;6.764;2022-08-21T15:52:46;5.43;;;1.75;;
26098;SDS011;13860;52.370;6.764;2022-08-21T15:55:51;8.30;;;1.92;;
26098;SDS011;13860;52.370;6.764;2022-08-21T15:58:58;10.02;;;2.50;;
26098;SDS011;13860;52.370;6.764;2022-08-21T16:02:05;9.93;;;2.40;;
26098;SDS011;13860;52.370;6.764;2022-08-21T16:05:14;13.05;;;2.53;;
26098;SDS011;13860;52.370;6.764;2022-08-21T16:08:20;10.40;;;2.15;;
26098;SDS011;13860;52.370;6.764;2022-08-21T16:11:25;9.50;;;2.70;;
26098;SDS011;13860;52.370;6.764;2022-08-21T16:14:32;9.55;;;2.65;;
26098;SDS011;13860;52.370;6.764;2022-08-21T16:17:41;8.93;;;2.08;;
26098;SDS011;13860;52.370;6.764;2022-08-21T16:20:52;8.82;;;2.10;;
26098;SDS011;13860;52.370;6.764;2022-08-21T16:23:57;10.25;;;2.45;;
26098;SDS011;13860;52.370;6.764;2022-08-21T16:27:02;11.65;;;2.55;;
26098;SDS011;13860;52.370;6.764;2022-08-21T16:30:09;10.38;;;2.63;;
26098;SDS011;13860;52.370;6.764;2022-08-21T16:33:19;13.18;;;2.60;;
26098;SDS011;13860;52.370;6.764;2022-08-21T16:36:29;9.00;;;2.30;;
26098;SDS011;13860;52.370;6.764;2022-08-21T16:39:34;9.20;;;2.10;;
26098;SDS011;13860;52.370;6.764;2022-08-21T16:42:40;9.38;;;2.88;;
26098;SDS011;13860;52.370;6.764;2022-08-21T16:45:46;11.10;;;2.38;;
26098;SDS011;13860;52.370;6.764;2022-08-21T16:48:51;12.82;;;2.42;;
26098;SDS011;13860;52.370;6.764;2022-08-21T16:51:59;11.13;;;2.40;;
26098;SDS011;13860;52.370;6.764;2022-08-21T16:55:05;8.02;;;2.42;;
26098;SDS011;13860;52.370;6.764;2022-08-21T16:58:13;8.68;;;2.40;;
26098;SDS011;13860;52.370;6.764;2022-08-21T17:01:21;7.00;;;2.08;;
26098;SDS011;13860;52.370;6.764;2022-08-21T17:04:29;10.00;;;2.53;;
26098;SDS011;13860;52.370;6.764;2022-08-21T17:07:37;7.30;;;2.40;;
26098;SDS011;13860;52.370;6.764;2022-08-21T17:10:43;10.90;;;2.17;;
26098;SDS011;13860;52.370;6.764;2022-08-21T17:13:50;7.10;;;1.85;;
26098;SDS011;13860;52.370;6.764;2022-08-21T17:16:56;7.22;;;2.08;;
26098;SDS011;13860;52.370;6.764;2022-08-21T17:20:01;11.57;;;2.35;;
26098;SDS011;13860;52.370;6.764;2022-08-21T17:23:09;13.90;;;2.83;;
26098;SDS011;13860;52.370;6.764;2022-08-21T17:26:15;8.75;;;2.15;;
26098;SDS011;13860;52.370;6.764;2022-08-21T17:29:22;8.75;;;2.03;;
26098;SDS011;13860;52.370;6.764;2022-08-21T17:32:30;10.68;;;2.10;;
26098;SDS011;13860;52.370;6.764;2022-08-21T17:35:35;8.73;;;2.60;;
26098;SDS011;13860;52.370;6.764;2022-08-21T17:38:42;12.73;;;2.53;;
26098;SDS011;13860;52.370;6.764;2022-08-21T17:41:47;16.30;;;2.40;;
26098;SDS011;13860;52.370;6.764;2022-08-21T17:44:58;8.05;;;2.10;;
26098;SDS011;13860;52.370;6.764;2022-08-21T17:48:04;8.30;;;1.95;;
26098;SDS011;13860;52.370;6.764;2022-08-21T17:51:09;7.00;;;2.08;;
26098;SDS011;13860;52.370;6.764;2022-08-21T17:54:17;7.88;;;1.95;;
26098;SDS011;13860;52.370;6.764;2022-08-21T17:57:22;11.88;;;2.72;;
26098;SDS011;13860;52.370;6.764;2022-08-21T18:00:30;12.48;;;3.05;;
26098;SDS011;13860;52.370;6.764;2022-08-21T18:03:35;10.57;;;2.75;;
26098;SDS011;13860;52.370;6.764;2022-08-21T18:06:41;5.93;;;2.00;;
26098;SDS011;13860;52.370;6.764;2022-08-21T18:09:49;6.95;;;1.70;;
26098;SDS011;13860;52.370;6.764;2022-08-21T18:13:05;9.27;;;2.25;;
26098;SDS011;13860;52.370;6.764;2022-08-21T18:16:12;5.65;;;2.25;;
26098;SDS011;13860;52.370;6.764;2022-08-21T18:19:20;6.50;;;2.20;;
26098;SDS011;13860;52.370;6.764;2022-08-21T18:22:27;7.95;;;2.15;;
26098;SDS011;13860;52.370;6.764;2022-08-21T18:25:34;9.85;;;2.13;;
26098;SDS011;13860;52.370;6.764;2022-08-21T18:28:40;11.90;;;2.30;;
26098;SDS011;13860;52.370;6.764;2022-08-21T18:31:45;7.35;;;2.85;;
26098;SDS011;13860;52.370;6.764;2022-08-21T18:34:51;6.35;;;1.77;;
26098;SDS011;13860;52.370;6.764;2022-08-21T18:37:58;8.52;;;2.25;;
26098;SDS011;13860;52.370;6.764;2022-08-21T18:41:06;10.38;;;2.05;;
26098;SDS011;13860;52.370;6.764;2022-08-21T18:44:11;5.40;;;1.98;;
26098;SDS011;13860;52.370;6.764;2022-08-21T18:47:19;7.88;;;2.00;;
26098;SDS011;13860;52.370;6.764;2022-08-21T18:50:27;9.07;;;2.00;;
26098;SDS011;13860;52.370;6.764;2022-08-21T18:53:34;5.35;;;2.10;;
26098;SDS011;13860;52.370;6.764;2022-08-21T18:56:42;6.35;;;1.83;;
26098;SDS011;13860;52.370;6.764;2022-08-21T18:59:47;5.47;;;1.83;;
26098;SDS011;13860;52.370;6.764;2022-08-21T19:02:52;7.85;;;2.05;;
26098;SDS011;13860;52.370;6.764;2022-08-21T19:05:58;5.90;;;1.83;;